Time;durP1;ratioP1;P1;durP2;ratioP2;P2;SDS_P1;SDS_P2;PMS_P1;PMS_P2;Temp;Humidity;BMP_temperature;BMP_pressure;BME280_temperature;BME280_humidity;BME280_pressure;Samples;Min_cycle;Max_cycle;Signal;HPM_P1;HPM_P2
2023/10/24 00:01:44;;;;;;;12.90;11.67;;;10.10;81.70;;;;;;6253211;28;20304;-84
2023/10/24 00:04:47;;;;;;;12.13;11.23;;;10.20;81.70;;;;;;6255641;28;20645;-78
2023/10/24 00:07:51;;;;;;;13.50;12.40;;;10.10;81.70;;;;;;6244598;28;20231;-82
2023/10/24 00:11:00;;;;;;;11.77;10.90;;;10.10;81.70;;;;;;6250094;28;20242;-83
2023/10/24 00:14:03;;;;;;;14.07;12.60;;;10.10;81.90;;;;;;6251416;28;20238;-79
2023/10/24 00:17:08;;;;;;;12.73;11.73;;;10.10;82.00;;;;;;6270631;28;20242;-80
2023/10/24 00:20:12;;;;;;;13.30;12.20;;;10.10;82.00;;;;;;6261361;28;20283;-82
2023/10/24 00:23:15;;;;;;;13.97;11.97;;;10.10;82.10;;;;;;6263866;28;20326;-82
2023/10/24 00:26:19;;;;;;;13.43;12.13;;;10.10;82.10;;;;;;6248649;28;20301;-82
2023/10/24 00:29:22;;;;;;;12.80;11.80;;;10.10;82.10;;;;;;6269383;28;20260;-85
2023/10/24 00:32:26;;;;;;;12.90;11.83;;;10.10;82.20;;;;;;6264767;28;20242;-77
2023/10/24 00:35:30;;;;;;;13.37;12.30;;;10.10;82.10;;;;;;6267551;28;20310;-80
2023/10/24 00:38:33;;;;;;;11.63;10.63;;;10.10;82.20;;;;;;6264144;28;20489;-84
2023/10/24 00:41:36;;;;;;;12.13;11.13;;;10.10;82.10;;;;;;6284180;28;20260;-83
2023/10/24 00:44:40;;;;;;;12.50;11.47;;;10.10;82.20;;;;;;6254188;28;20251;-86
2023/10/24 00:47:45;;;;;;;13.03;12.03;;;10.10;82.30;;;;;;6231129;28;20235;-79
2023/10/24 00:50:49;;;;;;;11.50;10.50;;;10.10;82.30;;;;;;6248418;28;20250;-82
2023/10/24 00:53:56;;;;;;;13.07;11.87;;;10.10;82.30;;;;;;6261008;28;20237;-81
2023/10/24 00:56:59;;;;;;;14.10;12.80;;;10.10;82.30;;;;;;6256070;28;20291;-86
2023/10/24 01:00:03;;;;;;;14.90;13.33;;;10.20;82.50;;;;;;6261973;28;20231;-82
2023/10/24 01:03:08;;;;;;;13.53;12.33;;;10.20;82.60;;;;;;6268265;28;20247;-81
2023/10/24 01:06:11;;;;;;;13.23;12.17;;;10.20;82.60;;;;;;6251956;28;20281;-83
2023/10/24 01:09:15;;;;;;;14.70;12.40;;;10.20;82.70;;;;;;6263107;28;20238;-82
2023/10/24 01:12:18;;;;;;;13.77;12.23;;;10.20;82.70;;;;;;6252624;28;20237;-86
2023/10/24 01:15:21;;;;;;;12.57;11.53;;;10.20;82.70;;;;;;6256462;28;20385;-81
2023/10/24 01:18:26;;;;;;;13.27;11.93;;;10.20;82.80;;;;;;6239292;28;20245;-82
2023/10/24 01:21:29;;;;;;;15.53;12.70;;;10.20;82.70;;;;;;6238525;28;20254;-82
2023/10/24 01:24:33;;;;;;;12.67;11.43;;;10.30;82.80;;;;;;6243880;28;20350;-84
2023/10/24 01:27:40;;;;;;;13.80;12.43;;;10.30;82.70;;;;;;6229972;28;20636;-82
2023/10/24 01:30:53;;;;;;;12.33;11.30;;;10.30;82.60;;;;;;6232014;28;20242;-83
2023/10/24 01:33:57;;;;;;;15.43;13.03;;;10.30;82.60;;;;;;6261132;28;20393;-82
2023/10/24 01:37:00;;;;;;;13.67;12.37;;;10.30;82.60;;;;;;6254461;28;20250;-82
2023/10/24 01:40:05;;;;;;;13.53;12.10;;;10.30;82.60;;;;;;6280858;28;20229;-80
2023/10/24 01:43:08;;;;;;;15.27;12.47;;;10.30;82.60;;;;;;6252113;28;20715;-83
2023/10/24 01:46:13;;;;;;;14.20;12.97;;;10.40;82.50;;;;;;6246800;28;20250;-85
2023/10/24 01:49:16;;;;;;;13.80;12.50;;;10.40;82.50;;;;;;6244181;28;20959;-84
2023/10/24 01:52:19;;;;;;;12.93;11.83;;;10.40;82.40;;;;;;6257348;28;20763;-84
2023/10/24 01:55:24;;;;;;;13.83;12.43;;;10.40;82.40;;;;;;6228838;28;20258;-84
2023/10/24 01:58:27;;;;;;;13.10;11.90;;;10.40;82.20;;;;;;6242469;28;20338;-84
2023/10/24 02:01:30;;;;;;;15.93;14.30;;;10.40;82.20;;;;;;6251710;28;20239;-85
2023/10/24 02:04:33;;;;;;;14.10;12.90;;;10.50;82.30;;;;;;6250203;28;20260;-83
2023/10/24 02:07:37;;;;;;;13.87;12.67;;;10.50;82.30;;;;;;6257200;28;20249;-85
2023/10/24 02:10:41;;;;;;;12.57;11.40;;;10.50;82.20;;;;;;6243651;28;20242;-83
2023/10/24 02:13:45;;;;;;;14.17;12.90;;;10.50;82.20;;;;;;6234931;28;20265;-83
2023/10/24 02:16:48;;;;;;;12.30;11.40;;;10.50;82.10;;;;;;6248034;28;20242;-83
2023/10/24 02:19:52;;;;;;;12.50;11.30;;;10.50;82.20;;;;;;6261923;28;20238;-83
2023/10/24 02:22:55;;;;;;;14.47;12.03;;;10.50;82.30;;;;;;6232601;28;20302;-85
2023/10/24 02:26:00;;;;;;;13.87;12.63;;;10.50;82.30;;;;;;6232730;28;20254;-85
2023/10/24 02:29:03;;;;;;;14.53;12.73;;;10.60;82.10;;;;;;6246968;28;20416;-85
2023/10/24 02:32:06;;;;;;;14.27;12.13;;;10.50;82.20;;;;;;6241868;28;20794;-82
2023/10/24 02:35:10;;;;;;;14.47;12.97;;;10.50;82.20;;;;;;6254535;28;20313;-85
2023/10/24 02:38:13;;;;;;;14.17;12.67;;;10.50;82.20;;;;;;6244169;28;20259;-81
2023/10/24 02:41:18;;;;;;;14.00;12.60;;;10.50;82.40;;;;;;6261340;28;20234;-83
2023/10/24 02:44:21;;;;;;;13.67;11.47;;;10.50;82.50;;;;;;6236501;28;20238;-81
2023/10/24 02:47:25;;;;;;;13.97;12.70;;;10.50;82.50;;;;;;6290069;28;20246;-85
2023/10/24 02:50:28;;;;;;;18.33;12.87;;;10.50;82.50;;;;;;6255061;28;20834;-83
2023/10/24 02:53:31;;;;;;;15.80;12.87;;;10.50;82.40;;;;;;6256589;28;20238;-84
2023/10/24 02:56:38;;;;;;;15.77;12.13;;;10.50;82.30;;;;;;6253598;28;20230;-85
2023/10/24 02:59:41;;;;;;;13.33;12.13;;;10.60;82.20;;;;;;6255127;28;20273;-83
2023/10/24 03:02:44;;;;;;;14.63;13.20;;;10.50;82.30;;;;;;6268077;28;20230;-83
2023/10/24 03:05:47;;;;;;;15.90;12.63;;;10.60;82.30;;;;;;6255289;28;20844;-82
2023/10/24 03:08:50;;;;;;;14.10;12.80;;;10.60;82.20;;;;;;6260999;28;20828;-83
2023/10/24 03:11:55;;;;;;;14.10;12.30;;;10.60;82.20;;;;;;6262392;28;20795;-83
2023/10/24 03:14:58;;;;;;;12.60;11.47;;;10.60;82.20;;;;;;6241101;28;20250;-81
2023/10/24 03:18:01;;;;;;;14.60;12.60;;;10.60;82.20;;;;;;6253856;28;20839;-82
2023/10/24 03:21:05;;;;;;;13.87;12.37;;;10.60;82.30;;;;;;6254827;28;20230;-85
2023/10/24 03:24:09;;;;;;;14.20;12.70;;;10.60;82.20;;;;;;6258854;28;20314;-80
2023/10/24 03:27:14;;;;;;;12.97;11.87;;;10.50;82.20;;;;;;6246382;28;20234;-85
2023/10/24 03:30:17;;;;;;;14.53;13.17;;;10.60;82.20;;;;;;6244362;28;20234;-84
2023/10/24 03:33:21;;;;;;;13.43;12.13;;;10.60;82.20;;;;;;6250944;28;20877;-84
2023/10/24 03:36:24;;;;;;;14.17;12.87;;;10.60;82.10;;;;;;6258266;28;20745;-84
2023/10/24 03:39:27;;;;;;;14.93;13.43;;;10.60;82.10;;;;;;6250359;28;20300;-81
2023/10/24 03:42:32;;;;;;;14.20;12.80;;;10.60;82.20;;;;;;6249223;28;20233;-84
2023/10/24 03:45:37;;;;;;;12.83;11.50;;;10.60;82.20;;;;;;6254399;28;20242;-83
2023/10/24 03:48:41;;;;;;;13.30;12.00;;;10.60;82.20;;;;;;6246484;28;20239;-82
2023/10/24 03:51:46;;;;;;;13.83;12.60;;;10.60;82.10;;;;;;6259024;28;20279;-84
2023/10/24 03:54:49;;;;;;;14.20;12.73;;;10.60;82.10;;;;;;6253148;28;20246;-85
2023/10/24 03:57:54;;;;;;;14.50;13.10;;;10.60;82.10;;;;;;6262745;28;20242;-85
2023/10/24 04:01:04;;;;;;;15.20;12.63;;;10.60;82.00;;;;;;6265581;28;20242;-82
2023/10/24 04:04:07;;;;;;;15.23;13.33;;;10.60;82.20;;;;;;6248671;28;20238;-83
2023/10/24 04:07:10;;;;;;;13.77;12.13;;;10.60;82.00;;;;;;6251737;28;20238;-83
2023/10/24 04:10:15;;;;;;;16.07;13.33;;;10.60;82.10;;;;;;6239177;28;20236;-83
2023/10/24 04:13:20;;;;;;;12.73;11.43;;;10.60;82.00;;;;;;6254761;28;20238;-80
2023/10/24 04:16:23;;;;;;;11.90;10.73;;;10.50;82.10;;;;;;6260343;28;20246;-83
2023/10/24 04:19:26;;;;;;;14.10;12.70;;;10.60;82.30;;;;;;6249276;28;20231;-82
2023/10/24 04:22:30;;;;;;;12.60;11.30;;;10.60;82.20;;;;;;6250009;28;20245;-85
2023/10/24 04:25:33;;;;;;;13.50;12.20;;;10.60;82.20;;;;;;6252894;28;20234;-85
2023/10/24 04:28:38;;;;;;;14.60;11.83;;;10.60;82.30;;;;;;6237884;28;20245;-82
2023/10/24 04:31:45;;;;;;;13.37;11.83;;;10.60;82.20;;;;;;6248077;28;20241;-82
2023/10/24 04:34:51;;;;;;;15.27;12.73;;;10.60;82.20;;;;;;6221518;28;20314;-84
2023/10/24 04:37:54;;;;;;;13.63;12.33;;;10.60;82.40;;;;;;6269345;28;20250;-80
2023/10/24 04:41:08;;;;;;;13.93;12.47;;;10.50;82.60;;;;;;6284764;28;20237;-83
2023/10/24 04:44:12;;;;;;;15.67;12.87;;;10.50;82.70;;;;;;6272093;28;20238;-84
2023/10/24 04:47:15;;;;;;;13.97;12.57;;;10.40;82.90;;;;;;6248471;28;20246;-84
2023/10/24 04:50:18;;;;;;;15.80;13.40;;;10.50;82.80;;;;;;6248717;28;20381;-85
2023/10/24 04:53:22;;;;;;;14.23;12.73;;;10.50;82.80;;;;;;6244356;28;20250;-85
2023/10/24 04:56:25;;;;;;;16.90;13.93;;;10.50;82.90;;;;;;6253182;28;20258;-82
2023/10/24 04:59:30;;;;;;;14.17;12.77;;;10.50;82.90;;;;;;6248919;28;20280;-81
2023/10/24 05:02:33;;;;;;;13.40;12.07;;;10.40;83.00;;;;;;6228503;28;20651;-84
2023/10/24 05:05:36;;;;;;;17.03;12.93;;;10.40;83.10;;;;;;6213528;28;20723;-82
2023/10/24 05:08:39;;;;;;;17.73;14.50;;;10.40;83.20;;;;;;6211799;28;20243;-82
2023/10/24 05:11:43;;;;;;;14.83;13.23;;;10.40;83.30;;;;;;6212615;28;20227;-81
2023/10/24 05:14:47;;;;;;;15.00;13.53;;;10.40;83.40;;;;;;6209655;28;20313;-80
2023/10/24 05:17:51;;;;;;;14.23;12.87;;;10.40;83.40;;;;;;6208479;28;20239;-81
2023/10/24 05:20:54;;;;;;;15.70;12.90;;;10.40;83.40;;;;;;6212390;28;20829;-81
2023/10/24 05:23:58;;;;;;;16.83;14.17;;;10.40;83.50;;;;;;6211946;28;20242;-80
2023/10/24 05:27:02;;;;;;;14.80;13.30;;;10.40;83.50;;;;;;6210901;28;20719;-80
2023/10/24 05:30:10;;;;;;;14.43;13.03;;;10.40;83.30;;;;;;6212239;28;20239;-78
2023/10/24 05:33:13;;;;;;;15.00;13.60;;;10.40;83.30;;;;;;6205929;28;20252;-81
2023/10/24 05:36:17;;;;;;;14.83;13.43;;;10.40;83.40;;;;;;6209207;28;20617;-82
2023/10/24 05:39:20;;;;;;;15.10;13.37;;;10.40;83.30;;;;;;6211155;28;20753;-80
2023/10/24 05:42:23;;;;;;;15.37;13.80;;;10.40;83.40;;;;;;6222176;28;20245;-81
2023/10/24 05:45:28;;;;;;;15.00;13.37;;;10.40;83.30;;;;;;6217172;28;20243;-81
2023/10/24 05:48:31;;;;;;;13.93;12.63;;;10.40;83.40;;;;;;6210597;28;20712;-83
2023/10/24 05:51:34;;;;;;;16.57;14.77;;;10.40;83.40;;;;;;6229297;28;20337;-81
2023/10/24 05:54:37;;;;;;;19.37;14.33;;;10.30;83.40;;;;;;6233680;28;20226;-82
2023/10/24 05:57:41;;;;;;;14.47;12.87;;;10.40;83.50;;;;;;6235092;28;20230;-80
2023/10/24 06:00:45;;;;;;;23.63;13.77;;;10.40;83.60;;;;;;6235956;28;20254;-80
2023/10/24 06:03:48;;;;;;;14.97;13.57;;;10.40;83.60;;;;;;6235957;28;20723;-82
2023/10/24 06:06:53;;;;;;;14.70;13.17;;;10.40;83.40;;;;;;6236714;28;20257;-80
2023/10/24 06:09:56;;;;;;;15.00;13.13;;;10.40;83.40;;;;;;6236108;28;20374;-81
2023/10/24 06:13:00;;;;;;;17.10;13.97;;;10.30;83.40;;;;;;6239614;28;20257;-79
2023/10/24 06:16:12;;;;;;;14.80;13.47;;;10.30;83.50;;;;;;6240892;28;20281;-79
2023/10/24 06:19:15;;;;;;;16.73;14.40;;;10.30;83.60;;;;;;6240728;28;20241;-80
2023/10/24 06:22:18;;;;;;;15.13;13.10;;;10.30;83.70;;;;;;6236971;28;20750;-80
2023/10/24 06:25:22;;;;;;;15.47;13.87;;;10.30;83.70;;;;;;6235935;28;20246;-82
2023/10/24 06:28:25;;;;;;;15.43;13.83;;;10.30;83.70;;;;;;6241736;28;20230;-80
2023/10/24 06:31:30;;;;;;;17.90;14.00;;;10.30;83.70;;;;;;6236102;28;20269;-82
2023/10/24 06:34:33;;;;;;;16.07;14.00;;;10.30;83.80;;;;;;6237208;28;20762;-82
2023/10/24 06:37:36;;;;;;;16.10;14.00;;;10.40;83.70;;;;;;6230813;28;20845;-81
2023/10/24 06:40:40;;;;;;;16.77;14.00;;;10.40;83.60;;;;;;6233745;28;20231;-80
2023/10/24 06:43:43;;;;;;;15.37;13.90;;;10.40;83.60;;;;;;6239687;28;20234;-78
2023/10/24 06:46:47;;;;;;;19.17;14.03;;;10.40;83.50;;;;;;6239409;28;20399;-80
2023/10/24 06:49:51;;;;;;;16.30;14.40;;;10.40;83.50;;;;;;6228575;28;20317;-83
2023/10/24 06:52:54;;;;;;;15.10;13.60;;;10.50;83.30;;;;;;6265665;28;20620;-82
2023/10/24 06:56:00;;;;;;;16.93;13.73;;;10.50;83.20;;;;;;6241952;28;20607;-81
2023/10/24 06:59:03;;;;;;;14.40;13.10;;;10.50;83.20;;;;;;6238584;28;20411;-82
2023/10/24 07:02:08;;;;;;;15.30;13.73;;;10.50;83.30;;;;;;6239928;28;20473;-82
2023/10/24 07:05:12;;;;;;;15.93;14.20;;;10.50;83.30;;;;;;6238928;28;20876;-83
2023/10/24 07:08:15;;;;;;;15.40;13.53;;;10.60;83.20;;;;;;6237052;28;20673;-77
2023/10/24 07:11:18;;;;;;;14.43;12.97;;;10.70;82.90;;;;;;6241130;28;20241;-79
2023/10/24 07:14:21;;;;;;;16.43;13.10;;;10.60;82.90;;;;;;6242272;28;20286;-74
2023/10/24 07:17:26;;;;;;;14.90;13.13;;;10.70;82.80;;;;;;6233603;28;20247;-79
2023/10/24 07:20:29;;;;;;;14.63;13.23;;;10.70;82.70;;;;;;6236179;28;20320;-81
2023/10/24 07:23:33;;;;;;;16.57;13.27;;;10.80;82.60;;;;;;6247207;28;20238;-82
2023/10/24 07:26:37;;;;;;;16.77;13.70;;;10.80;82.60;;;;;;6239811;28;20241;-82
2023/10/24 07:29:40;;;;;;;15.83;13.57;;;10.90;82.40;;;;;;6239048;28;20243;-85
2023/10/24 07:32:44;;;;;;;14.07;12.67;;;10.90;82.20;;;;;;6240168;28;20235;-82
2023/10/24 07:35:50;;;;;;;14.20;12.73;;;10.90;82.30;;;;;;6250528;28;20226;-82
2023/10/24 07:38:55;;;;;;;13.97;12.57;;;10.90;82.20;;;;;;6253474;28;20257;-81
2023/10/24 07:41:58;;;;;;;14.47;12.17;;;11.00;82.20;;;;;;6256358;28;20618;-81
2023/10/24 07:45:01;;;;;;;17.47;12.43;;;11.00;81.90;;;;;;6258349;28;20288;-81
2023/10/24 07:48:06;;;;;;;14.00;12.57;;;11.10;81.70;;;;;;6237348;28;20234;-79
2023/10/24 07:51:10;;;;;;;14.57;13.10;;;11.10;81.80;;;;;;6260851;28;20388;-82
2023/10/24 07:54:19;;;;;;;13.47;12.27;;;11.10;81.60;;;;;;6247816;28;20417;-80
2023/10/24 07:57:24;;;;;;;14.20;12.80;;;11.10;81.60;;;;;;6272061;28;21099;-76
2023/10/24 08:00:27;;;;;;;13.47;12.10;;;11.20;81.30;;;;;;6288856;28;20249;-76
2023/10/24 08:03:31;;;;;;;14.60;13.20;;;11.20;81.20;;;;;;6268814;28;20242;-80
2023/10/24 08:06:35;;;;;;;14.43;12.93;;;11.20;81.00;;;;;;6276556;28;20223;-78
2023/10/24 08:09:38;;;;;;;15.63;13.10;;;11.30;80.80;;;;;;6282453;28;20234;-79
2023/10/24 08:12:41;;;;;;;13.53;11.53;;;11.20;80.70;;;;;;6277547;28;20287;-75
2023/10/24 08:15:50;;;;;;;14.67;13.37;;;11.20;80.90;;;;;;6279310;28;20231;-74
2023/10/24 08:18:54;;;;;;;15.93;13.40;;;11.10;80.80;;;;;;6270242;28;20229;-78
2023/10/24 08:21:57;;;;;;;15.97;13.53;;;11.20;80.70;;;;;;6279390;28;20226;-79
2023/10/24 08:25:00;;;;;;;14.20;12.80;;;11.10;80.90;;;;;;6278471;28;20237;-78
2023/10/24 08:28:04;;;;;;;15.00;12.10;;;11.10;80.90;;;;;;6273304;28;20431;-75
2023/10/24 08:31:07;;;;;;;14.93;12.77;;;11.20;81.00;;;;;;6276591;28;20219;-77
2023/10/24 08:34:12;;;;;;;14.13;12.77;;;11.30;80.80;;;;;;6268088;28;20234;-78
2023/10/24 08:37:15;;;;;;;15.57;13.90;;;11.30;80.70;;;;;;6280718;28;20214;-79
2023/10/24 08:40:18;;;;;;;14.87;13.47;;;11.30;80.60;;;;;;6274992;28;20223;-79
2023/10/24 08:43:22;;;;;;;20.80;13.70;;;11.40;80.60;;;;;;6268528;28;20242;-78
2023/10/24 08:46:25;;;;;;;20.17;13.50;;;11.40;80.50;;;;;;6285684;28;20267;-80
2023/10/24 08:49:32;;;;;;;19.20;14.33;;;11.40;80.10;;;;;;6274459;28;20276;-80
2023/10/24 08:52:35;;;;;;;14.50;13.17;;;11.50;80.00;;;;;;6266105;28;20234;-76
2023/10/24 08:55:40;;;;;;;18.43;13.53;;;11.50;80.10;;;;;;6270793;28;20227;-76
2023/10/24 08:58:46;;;;;;;15.57;13.87;;;11.60;80.10;;;;;;6278010;28;20811;-79
2023/10/24 09:01:50;;;;;;;17.47;13.67;;;11.70;79.50;;;;;;6268460;28;20226;-79
2023/10/24 09:04:55;;;;;;;14.40;12.90;;;11.70;79.00;;;;;;6276607;28;20230;-80
2023/10/24 09:07:59;;;;;;;16.47;13.23;;;11.90;79.20;;;;;;6271887;28;20234;-77
2023/10/24 09:11:03;;;;;;;14.37;12.67;;;11.90;79.20;;;;;;6278085;28;20218;-79
2023/10/24 09:14:06;;;;;;;15.17;12.87;;;12.00;78.80;;;;;;6277667;28;20234;-78
2023/10/24 09:17:09;;;;;;;14.47;13.00;;;12.00;78.40;;;;;;6287255;28;20214;-80
2023/10/24 09:20:14;;;;;;;18.43;13.37;;;12.00;78.70;;;;;;6278303;28;20225;-77
2023/10/24 09:23:17;;;;;;;18.70;14.23;;;12.10;78.60;;;;;;6274790;28;20939;-79
2023/10/24 09:26:22;;;;;;;14.27;12.97;;;12.20;77.90;;;;;;6273774;28;20240;-76
2023/10/24 09:29:27;;;;;;;15.60;14.00;;;12.30;77.90;;;;;;6273345;28;20252;-75
2023/10/24 09:32:30;;;;;;;15.03;13.07;;;12.30;77.50;;;;;;6282302;28;20242;-81
2023/10/24 09:35:36;;;;;;;14.00;12.60;;;12.50;77.40;;;;;;6248499;28;20815;-81
2023/10/24 09:38:42;;;;;;;15.30;13.63;;;12.50;77.40;;;;;;6231326;28;20726;-81
2023/10/24 09:41:47;;;;;;;14.00;12.20;;;12.50;76.70;;;;;;6250147;28;20241;-81
2023/10/24 09:44:52;;;;;;;17.23;13.53;;;12.60;76.60;;;;;;6245135;28;20368;-83
2023/10/24 09:47:56;;;;;;;13.20;11.93;;;12.60;76.40;;;;;;6252636;28;20741;-81
2023/10/24 09:51:03;;;;;;;13.47;12.03;;;12.50;76.30;;;;;;6244539;28;20234;-84
2023/10/24 09:54:08;;;;;;;15.47;12.23;;;12.60;76.50;;;;;;6232020;28;20230;-81
2023/10/24 09:57:12;;;;;;;14.80;13.00;;;12.50;76.60;;;;;;6252032;28;20235;-81
2023/10/24 10:00:16;;;;;;;13.77;12.37;;;12.60;76.70;;;;;;6244649;28;20716;-79
2023/10/24 10:03:20;;;;;;;14.00;12.50;;;12.70;76.60;;;;;;6241342;28;20246;-79
2023/10/24 10:06:27;;;;;;;14.87;13.23;;;12.70;76.60;;;;;;6249574;28;20233;-83
2023/10/24 10:09:53;;;;;;;13.90;12.70;;;12.70;76.40;;;;;;6250105;28;20353;-78
2023/10/24 10:13:00;;;;;;;15.13;13.57;;;12.70;76.50;;;;;;6254588;28;20251;-81
2023/10/24 10:16:18;;;;;;;14.77;13.13;;;12.70;76.00;;;;;;6242380;28;20234;-79
2023/10/24 10:19:46;;;;;;;14.63;13.13;;;12.70;75.60;;;;;;6253021;28;20612;-80
2023/10/24 10:23:09;;;;;;;21.03;15.03;;;12.70;75.90;;;;;;6236145;28;20246;-80
2023/10/24 10:26:20;;;;;;;17.00;12.77;;;12.60;76.10;;;;;;6244524;28;20702;-82
2023/10/24 10:29:39;;;;;;;14.20;12.80;;;12.60;76.40;;;;;;6247687;28;20237;-79
2023/10/24 10:32:50;;;;;;;14.80;13.23;;;12.60;76.80;;;;;;6244814;28;20431;-81
2023/10/24 10:36:13;;;;;;;15.07;13.50;;;12.60;76.50;;;;;;6239912;28;20747;-79
2023/10/24 10:39:17;;;;;;;14.80;13.00;;;12.70;76.60;;;;;;6248304;28;20278;-80
2023/10/24 10:42:48;;;;;;;15.23;13.73;;;12.80;76.70;;;;;;6240778;28;20717;-82
2023/10/24 10:45:51;;;;;;;14.80;13.00;;;12.70;76.30;;;;;;6216834;28;20242;-81
2023/10/24 10:48:59;;;;;;;15.30;13.70;;;12.70;76.30;;;;;;6251439;28;20239;-83
2023/10/24 10:52:03;;;;;;;13.93;12.47;;;12.70;76.50;;;;;;6235125;28;20234;-81
2023/10/24 10:55:25;;;;;;;15.83;14.13;;;12.80;76.80;;;;;;6233037;28;20257;-80
2023/10/24 10:58:40;;;;;;;16.53;13.30;;;12.80;76.70;;;;;;6239530;28;20235;-82
2023/10/24 11:01:56;;;;;;;22.73;14.90;;;12.80;76.70;;;;;;6250818;28;20235;-80
2023/10/24 11:04:59;;;;;;;17.17;13.93;;;12.70;76.90;;;;;;6258055;28;20754;-78
2023/10/24 11:08:04;;;;;;;16.90;13.73;;;12.70;77.40;;;;;;6248346;28;20245;-82
2023/10/24 11:11:10;;;;;;;18.77;14.63;;;12.80;77.70;;;;;;6240163;28;20234;-83
2023/10/24 11:14:15;;;;;;;13.87;12.43;;;13.00;77.30;;;;;;6255644;28;20242;-81
2023/10/24 11:17:20;;;;;;;15.07;13.47;;;13.00;77.50;;;;;;6240337;28;20536;-82
2023/10/24 11:20:24;;;;;;;16.70;14.10;;;13.10;77.20;;;;;;6256635;28;20303;-80
2023/10/24 11:23:28;;;;;;;15.70;13.77;;;13.20;76.90;;;;;;6245572;28;20614;-80
2023/10/24 11:26:32;;;;;;;17.53;13.23;;;13.30;77.10;;;;;;6244850;28;20259;-82
2023/10/24 11:29:36;;;;;;;15.73;13.80;;;13.10;77.00;;;;;;6253084;28;20238;-80
2023/10/24 11:32:40;;;;;;;15.97;14.03;;;13.00;77.50;;;;;;6261233;28;20300;-80
2023/10/24 11:35:44;;;;;;;13.77;12.63;;;13.10;77.50;;;;;;6244220;28;20729;-83
2023/10/24 11:38:47;;;;;;;14.03;12.77;;;13.10;77.20;;;;;;6241387;28;20713;-81
2023/10/24 11:41:52;;;;;;;19.80;14.20;;;13.30;77.30;;;;;;6237791;28;20233;-82
2023/10/24 11:44:55;;;;;;;15.07;13.37;;;13.30;77.20;;;;;;6253915;28;20237;-82
2023/10/24 11:47:59;;;;;;;13.93;12.63;;;13.30;76.90;;;;;;6254003;28;20272;-80
2023/10/24 11:51:05;;;;;;;14.17;12.30;;;13.30;76.90;;;;;;6249734;28;20239;-80
2023/10/24 11:54:09;;;;;;;13.63;12.17;;;13.40;77.00;;;;;;6238785;28;20393;-79
2023/10/24 11:57:14;;;;;;;15.83;13.33;;;13.50;77.20;;;;;;6250076;28;20238;-80
2023/10/24 12:00:18;;;;;;;17.67;14.03;;;13.50;76.60;;;;;;6247876;28;20234;-81
2023/10/24 12:03:21;;;;;;;15.40;12.90;;;13.50;76.70;;;;;;6251956;28;20273;-80
2023/10/24 12:06:26;;;;;;;14.67;12.90;;;13.50;76.70;;;;;;6247270;28;20237;-79
2023/10/24 12:09:33;;;;;;;18.37;13.13;;;13.40;76.70;;;;;;6242449;28;20327;-82
2023/10/24 12:12:37;;;;;;;15.73;13.60;;;13.30;76.80;;;;;;6241471;28;20245;-82
2023/10/24 12:15:41;;;;;;;13.97;12.50;;;13.30;76.80;;;;;;6219162;28;20785;-82
2023/10/24 12:18:46;;;;;;;14.90;13.30;;;13.20;77.20;;;;;;6225767;28;20249;-83
2023/10/24 12:21:50;;;;;;;15.90;12.90;;;13.10;77.30;;;;;;6224688;28;20227;-82
2023/10/24 12:24:53;;;;;;;16.93;13.53;;;13.10;77.50;;;;;;6250306;28;20284;-78
2023/10/24 12:27:58;;;;;;;16.93;14.27;;;13.00;77.90;;;;;;6251247;28;20315;-80
2023/10/24 12:31:03;;;;;;;14.93;12.90;;;12.90;78.40;;;;;;6214861;28;20235;-81
2023/10/24 12:34:09;;;;;;;16.77;13.03;;;12.90;78.90;;;;;;6206041;28;20267;-81
2023/10/24 12:37:12;;;;;;;17.33;14.50;;;12.80;78.90;;;;;;6210931;28;20244;-79
2023/10/24 12:40:15;;;;;;;12.70;11.57;;;12.80;79.40;;;;;;6218930;28;20246;-82
2023/10/24 12:43:20;;;;;;;16.50;12.07;;;12.70;79.40;;;;;;6249389;28;20254;-81
2023/10/24 12:46:23;;;;;;;14.93;13.57;;;12.80;79.60;;;;;;6232812;28;20230;-82
2023/10/24 12:49:26;;;;;;;16.53;12.17;;;12.80;79.70;;;;;;6230302;28;20709;-81
2023/10/24 12:52:29;;;;;;;14.93;13.43;;;12.80;79.70;;;;;;6238878;28;20308;-80
2023/10/24 12:55:33;;;;;;;13.17;11.80;;;12.80;79.70;;;;;;6237778;28;20707;-81
2023/10/24 12:58:38;;;;;;;14.30;12.27;;;12.80;79.70;;;;;;6238065;28;20239;-81
2023/10/24 13:01:42;;;;;;;13.63;12.23;;;12.90;79.90;;;;;;6235501;28;20246;-83
2023/10/24 13:04:45;;;;;;;17.27;13.33;;;12.90;80.00;;;;;;6237286;28;20234;-82
2023/10/24 13:07:48;;;;;;;13.47;11.47;;;12.90;80.00;;;;;;6246933;28;20241;-83
2023/10/24 13:10:52;;;;;;;11.60;10.60;;;13.00;80.00;;;;;;6232718;28;20242;-82
2023/10/24 13:13:56;;;;;;;13.53;12.20;;;13.00;80.00;;;;;;6236135;28;20807;-83
2023/10/24 13:17:01;;;;;;;19.47;14.37;;;13.10;80.00;;;;;;6237141;28;20243;-79
2023/10/24 13:20:17;;;;;;;14.70;13.20;;;13.10;80.00;;;;;;6238038;28;20313;-83
2023/10/24 13:23:21;;;;;;;15.23;13.63;;;13.10;79.90;;;;;;6216891;28;20246;-82
2023/10/24 13:26:26;;;;;;;15.57;13.97;;;13.10;79.70;;;;;;6235381;28;20758;-82
2023/10/24 13:29:30;;;;;;;15.57;12.93;;;13.10;79.80;;;;;;6239712;28;20321;-82
2023/10/24 13:32:33;;;;;;;14.10;12.47;;;13.10;79.80;;;;;;6237085;28;20238;-81
2023/10/24 13:35:37;;;;;;;16.17;12.73;;;13.10;79.80;;;;;;6238517;28;20790;-80
2023/10/24 13:38:43;;;;;;;16.80;13.10;;;13.10;79.90;;;;;;6236418;28;20381;-81
2023/10/24 13:41:46;;;;;;;18.23;13.90;;;13.10;80.00;;;;;;6235141;28;20234;-82
2023/10/24 13:44:50;;;;;;;20.23;13.77;;;13.10;80.00;;;;;;6234235;28;20240;-81
2023/10/24 13:47:54;;;;;;;14.57;13.07;;;13.10;80.00;;;;;;6234998;28;20332;-80
2023/10/24 13:50:57;;;;;;;15.53;14.03;;;13.10;80.00;;;;;;6237594;28;20943;-82
2023/10/24 13:54:00;;;;;;;14.00;12.60;;;13.10;80.20;;;;;;6237279;28;20238;-84
2023/10/24 13:57:04;;;;;;;14.43;12.83;;;13.10;80.20;;;;;;6236034;28;20242;-80
2023/10/24 14:00:11;;;;;;;13.63;12.37;;;13.00;80.30;;;;;;6241301;28;20235;-84
2023/10/24 14:03:14;;;;;;;13.70;12.30;;;13.00;80.40;;;;;;6230903;28;20269;-81
2023/10/24 14:06:17;;;;;;;13.93;12.63;;;13.00;80.50;;;;;;6231584;28;20235;-80
2023/10/24 14:09:21;;;;;;;15.10;13.70;;;13.00;80.60;;;;;;6232663;28;20850;-82
2023/10/24 14:12:24;;;;;;;16.77;15.07;;;13.00;80.70;;;;;;6232862;28;20235;-81
2023/10/24 14:15:28;;;;;;;16.50;14.83;;;13.00;80.70;;;;;;6221262;28;20234;-81
2023/10/24 14:18:33;;;;;;;15.47;13.87;;;12.90;80.80;;;;;;6235201;28;20934;-80
2023/10/24 14:21:36;;;;;;;17.13;14.53;;;12.90;80.80;;;;;;6236902;28;20227;-81
2023/10/24 14:24:39;;;;;;;16.63;13.60;;;12.90;80.90;;;;;;6238585;28;20235;-82
2023/10/24 14:27:42;;;;;;;15.70;14.17;;;12.90;81.00;;;;;;6235788;28;20268;-80
2023/10/24 14:30:47;;;;;;;14.03;12.63;;;12.80;81.20;;;;;;6226430;28;20231;-84
2023/10/24 14:33:50;;;;;;;16.80;13.33;;;12.80;81.30;;;;;;6233861;28;20384;-82
2023/10/24 14:36:53;;;;;;;17.37;14.00;;;12.80;81.50;;;;;;6241249;28;20258;-79
2023/10/24 14:39:56;;;;;;;14.40;13.20;;;12.70;81.60;;;;;;6247873;28;20245;-80
2023/10/24 14:42:59;;;;;;;16.00;14.50;;;12.70;81.70;;;;;;6242297;28;20511;-81
2023/10/24 14:46:05;;;;;;;18.10;14.73;;;12.70;81.80;;;;;;6238864;28;20810;-80
2023/10/24 14:49:08;;;;;;;17.70;15.17;;;12.70;82.00;;;;;;6242980;28;20246;-80
2023/10/24 14:52:11;;;;;;;16.87;13.93;;;12.60;82.10;;;;;;6246591;28;20316;-79
2023/10/24 14:55:15;;;;;;;16.97;15.37;;;12.50;82.20;;;;;;6237527;28;20242;-82
2023/10/24 14:58:21;;;;;;;18.63;16.77;;;12.50;82.70;;;;;;6241501;28;20261;-83
2023/10/24 15:01:26;;;;;;;19.03;16.30;;;12.50;82.50;;;;;;6242183;28;20860;-83
2023/10/24 15:04:29;;;;;;;18.93;16.70;;;12.50;82.80;;;;;;6242735;28;20239;-81
2023/10/24 15:07:32;;;;;;;20.50;18.23;;;12.50;82.70;;;;;;6231326;28;20307;-81
2023/10/24 15:10:35;;;;;;;19.30;17.33;;;12.50;82.80;;;;;;6235802;28;20235;-82
2023/10/24 15:13:39;;;;;;;17.30;15.57;;;12.50;83.00;;;;;;6231871;28;20235;-83
2023/10/24 15:16:44;;;;;;;17.03;15.40;;;12.50;83.00;;;;;;6240691;28;20235;-81
2023/10/24 15:19:47;;;;;;;18.03;16.13;;;12.50;83.20;;;;;;6237079;28;20587;-82
2023/10/24 15:22:50;;;;;;;18.10;16.30;;;12.40;83.20;;;;;;6239908;28;20234;-79
2023/10/24 15:25:54;;;;;;;20.63;18.33;;;12.40;83.30;;;;;;6237677;28;20241;-79
2023/10/24 15:28:57;;;;;;;20.97;18.67;;;12.30;83.40;;;;;;6240484;28;20607;-81
2023/10/24 15:32:24;;;;;;;18.43;16.73;;;12.30;83.50;;;;;;6239008;28;20245;-81
2023/10/24 15:35:27;;;;;;;18.80;16.93;;;12.30;83.60;;;;;;6239609;28;20289;-83
2023/10/24 15:38:31;;;;;;;18.17;16.47;;;12.30;83.70;;;;;;6244467;28;20292;-79